Time;durP1;ratioP1;P1;durP2;ratioP2;P2;SDS_P1;SDS_P2;PMS_P1;PMS_P2;Temp;Humidity;BMP_temperature;BMP_pressure;BME280_temperature;BME280_humidity;BME280_pressure;Samples;Min_cycle;Max_cycle;Signal;HPM_P1;HPM_P2
2022/09/27 00:01:10;;;;;;;0.95;0.35;;;9.60;99.90;;;;;;5038189;28;20043;-82
2022/09/27 00:03:36;;;;;;;1.10;0.30;;;9.70;99.90;;;;;;5022770;28;20045;-82
2022/09/27 00:06:06;;;;;;;0.85;0.40;;;9.70;99.90;;;;;;5049514;28;20629;-82
2022/09/27 00:08:33;;;;;;;0.75;0.30;;;9.70;99.90;;;;;;5054109;28;20045;-82
2022/09/27 00:11:00;;;;;;;0.80;0.20;;;9.70;99.90;;;;;;5055244;28;20052;-82
2022/09/27 00:13:27;;;;;;;1.38;0.20;;;9.70;99.90;;;;;;5055325;28;20471;-82
2022/09/27 00:15:58;;;;;;;0.70;0.30;;;9.60;99.90;;;;;;5045017;28;20120;-82
2022/09/27 00:18:24;;;;;;;4.90;0.60;;;9.60;99.90;;;;;;5004549;28;20184;-82
2022/09/27 00:20:50;;;;;;;0.68;0.20;;;9.50;99.90;;;;;;5038126;28;20466;-82
2022/09/27 00:23:16;;;;;;;0.43;0.30;;;9.50;99.90;;;;;;5038041;28;20041;-82
2022/09/27 00:25:41;;;;;;;0.30;0.22;;;9.70;99.90;;;;;;5033896;28;20045;-82
2022/09/27 00:28:08;;;;;;;0.43;0.15;;;9.60;99.90;;;;;;5036212;28;20044;-83
2022/09/27 00:30:34;;;;;;;0.43;0.15;;;9.40;99.90;;;;;;5038165;28;20047;-83
2022/09/27 00:32:59;;;;;;;0.43;0.20;;;9.50;99.90;;;;;;5054980;28;20041;-83
2022/09/27 00:35:25;;;;;;;0.20;0.10;;;9.30;99.90;;;;;;5046886;28;20487;-83
2022/09/27 00:37:51;;;;;;;1.80;0.15;;;9.30;99.90;;;;;;5018193;28;20044;-83
2022/09/27 00:40:16;;;;;;;0.00;0.00;;;10.50;99.90;;;;;;5037822;28;20044;-84
2022/09/27 00:42:42;;;;;;;0.10;0.10;;;9.20;99.90;;;;;;5036895;28;20048;-83
2022/09/27 00:45:15;;;;;;;0.25;0.20;;;10.00;99.90;;;;;;5045439;28;20457;-83
2022/09/27 00:48:04;;;;;;;0.70;0.32;;;9.20;99.90;;;;;;5000777;28;20049;-83
2022/09/27 00:50:41;;;;;;;0.32;0.10;;;9.20;99.90;;;;;;5035228;28;20045;-83
2022/09/27 00:53:15;;;;;;;1.15;0.20;;;9.20;99.90;;;;;;5032755;28;20042;-83
2022/09/27 00:55:54;;;;;;;0.55;0.30;;;9.20;99.90;;;;;;5016599;28;20045;-83
2022/09/27 00:58:26;;;;;;;1.17;0.40;;;9.20;99.90;;;;;;5032723;28;20037;-83
2022/09/27 01:00:56;;;;;;;0.90;0.20;;;9.20;99.90;;;;;;5021559;28;20732;-83
2022/09/27 01:03:31;;;;;;;0.30;0.22;;;9.20;99.90;;;;;;5019001;28;20049;-82
2022/09/27 01:05:58;;;;;;;0.73;0.43;;;9.20;99.90;;;;;;5021571;28;20590;-83
2022/09/27 06:24:20;;;;;;;2.33;0.35;;;8.40;99.90;;;;;;5141783;27;20465;-86
2022/09/27 06:26:46;;;;;;;2.55;0.60;;;9.20;99.90;;;;;;5111000;28;20118;-86
2022/09/27 06:29:14;;;;;;;2.03;0.77;;;9.20;99.90;;;;;;5096697;28;20039;-86
2022/09/27 06:31:40;;;;;;;3.25;0.50;;;9.30;99.90;;;;;;5112011;28;20031;-86
2022/09/27 06:34:07;;;;;;;0.57;0.40;;;9.40;99.90;;;;;;5078039;28;20039;-86
2022/09/27 06:36:33;;;;;;;6.45;1.88;;;9.40;99.90;;;;;;5114783;28;20040;-85
2022/09/27 06:39:00;;;;;;;2.65;0.80;;;9.40;99.90;;;;;;5122429;28;20405;-85
2022/09/27 06:41:26;;;;;;;1.27;0.70;;;9.50;99.90;;;;;;5113481;28;20135;-87
2022/09/27 06:43:52;;;;;;;0.60;0.50;;;9.60;99.90;;;;;;5075591;28;20467;-87
2022/09/27 06:46:17;;;;;;;0.35;0.30;;;10.30;99.90;;;;;;5146566;27;20042;-87
2022/09/27 06:48:46;;;;;;;1.33;0.63;;;9.70;99.90;;;;;;5079761;28;20122;-87
2022/09/27 06:51:12;;;;;;;2.15;0.40;;;9.70;99.90;;;;;;5096144;28;20508;-86
2022/09/27 06:53:38;;;;;;;2.20;0.68;;;9.70;99.90;;;;;;5096018;28;20069;-87
2022/09/27 06:56:12;;;;;;;1.33;0.35;;;9.70;99.90;;;;;;5119654;27;20051;-87
2022/09/27 07:01:27;;;;;;;0.93;0.40;;;9.50;99.90;;;;;;5112117;28;20046;-87
2022/09/27 07:03:53;;;;;;;0.55;0.20;;;9.50;99.90;;;;;;5112563;28;20058;-87
2022/09/27 07:06:22;;;;;;;0.28;0.20;;;9.60;99.90;;;;;;5129806;28;20035;-86
2022/09/27 07:08:52;;;;;;;1.35;0.30;;;9.60;99.90;;;;;;5113081;28;20039;-87
2022/09/27 07:11:24;;;;;;;0.75;0.30;;;9.70;99.90;;;;;;5111814;28;20493;-86
2022/09/27 07:13:50;;;;;;;1.60;0.30;;;9.80;99.90;;;;;;5112122;28;20053;-87
2022/09/27 07:16:16;;;;;;;0.73;0.30;;;10.00;99.90;;;;;;5112339;28;20054;-87
2022/09/27 07:18:42;;;;;;;3.00;0.85;;;9.80;99.90;;;;;;5112835;28;20039;-87
2022/09/27 07:21:08;;;;;;;3.33;0.30;;;9.90;99.90;;;;;;5113191;28;20465;-87
2022/09/27 07:23:36;;;;;;;1.17;0.30;;;10.40;99.90;;;;;;5095394;28;20130;-87
2022/09/27 07:26:05;;;;;;;0.20;0.20;;;9.80;99.90;;;;;;5111021;28;20035;-86
2022/09/27 07:28:32;;;;;;;0.45;0.30;;;10.00;99.90;;;;;;5086616;28;20168;-86
2022/09/27 07:31:01;;;;;;;0.52;0.30;;;;;;;;;;5094689;28;20042;-86
2022/09/27 07:33:30;;;;;;;0.38;0.25;;;9.90;99.90;;;;;;5093810;28;20393;-86
2022/09/27 07:35:56;;;;;;;0.88;0.35;;;10.40;99.90;;;;;;5063982;28;20155;-86
2022/09/27 07:38:22;;;;;;;0.55;0.30;;;10.50;99.90;;;;;;5093503;28;20148;-86
2022/09/27 07:40:47;;;;;;;0.30;0.30;;;11.60;99.90;;;;;;5078711;28;20080;-86
2022/09/27 07:43:13;;;;;;;1.75;0.60;;;10.80;99.90;;;;;;5072453;22;20195;-80
2022/09/27 07:45:39;;;;;;;1.35;0.70;;;11.10;99.90;;;;;;5072646;28;20041;-80
2022/09/27 07:48:07;;;;;;;1.60;0.60;;;11.30;99.90;;;;;;5074827;28;20105;-80
2022/09/27 07:50:33;;;;;;;0.40;0.35;;;11.50;99.90;;;;;;5081906;28;20111;-79
2022/09/27 07:52:59;;;;;;;1.38;0.30;;;11.80;99.90;;;;;;5099301;28;20039;-79
2022/09/27 07:55:24;;;;;;;1.48;0.30;;;12.00;99.90;;;;;;5078568;28;20037;-80
2022/09/27 07:57:50;;;;;;;3.13;1.08;;;11.90;99.90;;;;;;5089511;28;20068;-79
2022/09/27 08:00:21;;;;;;;0.20;0.20;;;11.80;99.90;;;;;;5076680;28;20489;-79
2022/09/27 08:02:46;;;;;;;2.88;0.65;;;11.80;99.90;;;;;;5101848;28;20041;-79
2022/09/27 08:05:12;;;;;;;0.75;0.40;;;11.80;99.90;;;;;;5071464;28;20148;-78
2022/09/27 08:07:39;;;;;;;3.30;0.40;;;11.80;99.90;;;;;;5070760;28;20523;-79
2022/09/27 08:10:08;;;;;;;2.53;0.40;;;11.70;99.90;;;;;;5070184;28;20123;-79
2022/09/27 08:12:34;;;;;;;1.30;0.50;;;11.80;99.90;;;;;;5052227;28;20059;-79
2022/09/27 08:15:01;;;;;;;1.67;0.30;;;11.90;99.90;;;;;;5063508;28;20051;-80
2022/09/27 08:17:28;;;;;;;0.22;0.20;;;12.10;99.90;;;;;;5070968;28;20048;-79
2022/09/27 08:19:53;;;;;;;1.23;0.60;;;12.40;99.90;;;;;;5065966;28;20037;-79
2022/09/27 08:22:20;;;;;;;0.65;0.40;;;12.70;99.90;;;;;;5078391;28;20479;-80
2022/09/27 08:24:46;;;;;;;0.30;0.30;;;13.20;99.90;;;;;;5073497;28;20098;-79
2022/09/27 08:27:12;;;;;;;1.90;0.90;;;13.80;99.90;;;;;;5072069;28;20383;-79
2022/09/27 08:29:40;;;;;;;2.70;0.60;;;14.60;99.90;;;;;;5084522;28;20557;-79
2022/09/27 08:32:10;;;;;;;4.85;0.60;;;15.60;99.90;;;;;;5072676;28;20478;-78
2022/09/27 08:34:36;;;;;;;1.08;0.52;;;17.00;99.90;;;;;;5057502;28;20045;-78
2022/09/27 08:37:02;;;;;;;3.53;0.63;;;18.20;99.90;;;;;;5069464;28;20166;-78
2022/09/27 08:39:28;;;;;;;0.65;0.30;;;18.50;99.90;;;;;;5053548;28;20120;-78
2022/09/27 08:42:31;;;;;;;0.20;0.20;;;18.50;99.90;;;;;;5071755;28;20499;-78
2022/09/27 08:45:16;;;;;;;2.05;0.38;;;18.40;99.90;;;;;;5062204;28;20051;-78
2022/09/27 08:47:48;;;;;;;0.20;0.20;;;18.60;99.90;;;;;;5065605;28;20047;-78
2022/09/27 08:50:37;;;;;;;0.63;0.28;;;18.20;99.90;;;;;;5053875;28;20557;-78
2022/09/27 08:53:29;;;;;;;0.57;0.47;;;17.60;99.90;;;;;;5068913;28;20056;-78
2022/09/27 08:55:57;;;;;;;3.10;0.65;;;17.30;99.90;;;;;;5072155;28;20032;-78
2022/09/27 08:58:42;;;;;;;1.35;0.45;;;17.00;99.90;;;;;;5053470;28;20089;-78
2022/09/27 09:01:15;;;;;;;1.55;0.40;;;16.90;99.90;;;;;;5053156;28;20123;-79
2022/09/27 09:03:51;;;;;;;1.48;0.20;;;16.80;99.90;;;;;;5078584;28;20040;-78
2022/09/27 09:06:31;;;;;;;0.35;0.25;;;16.40;99.90;;;;;;5067775;28;20049;-78
2022/09/27 09:09:28;;;;;;;0.20;0.20;;;16.30;99.90;;;;;;5083918;28;20471;-78
2022/09/27 09:15:31;;;;;;;2.45;0.52;;;15.70;99.90;;;;;;5075927;28;20383;-79
2022/09/27 09:18:27;;;;;;;3.67;0.63;;;15.30;99.90;;;;;;5074874;28;20040;-79
2022/09/27 09:21:05;;;;;;;0.47;0.25;;;15.00;99.90;;;;;;5067769;28;20035;-80
2022/09/27 09:23:38;;;;;;;2.33;0.40;;;14.40;99.90;;;;;;5065952;28;20120;-81
2022/09/27 09:26:26;;;;;;;2.42;0.10;;;13.90;99.90;;;;;;5081654;28;20040;-80
2022/09/27 09:29:17;;;;;;;0.10;0.10;;;13.60;99.90;;;;;;5106221;28;20044;-80
2022/09/27 09:32:11;;;;;;;0.90;0.20;;;13.40;99.90;;;;;;5067260;28;20044;-80
2022/09/27 09:34:46;;;;;;;0.47;0.28;;;13.40;99.90;;;;;;5058821;28;20039;-80
2022/09/27 09:37:23;;;;;;;0.10;0.10;;;14.00;99.90;;;;;;5081086;28;20070;-80
2022/09/27 09:39:58;;;;;;;0.00;0.00;;;14.60;99.90;;;;;;5089006;28;20494;-80
2022/09/27 09:42:37;;;;;;;1.08;0.30;;;15.10;99.90;;;;;;5072682;28;20110;-80
2022/09/27 09:45:30;;;;;;;1.00;0.28;;;15.40;99.90;;;;;;5068361;28;20134;-80
2022/09/27 09:48:07;;;;;;;0.43;0.32;;;15.40;99.90;;;;;;5056963;28;20032;-80
2022/09/27 09:50:47;;;;;;;2.08;0.30;;;15.60;99.90;;;;;;5067593;28;20050;-80
2022/09/27 09:53:18;;;;;;;0.22;0.20;;;15.90;99.90;;;;;;5055635;28;20504;-79
2022/09/27 09:55:51;;;;;;;0.55;0.22;;;16.30;99.90;;;;;;5066237;28;20421;-78
2022/09/27 09:58:27;;;;;;;1.02;0.40;;;17.00;99.90;;;;;;5069106;28;20115;-78
2022/09/27 10:00:59;;;;;;;1.55;0.30;;;17.60;99.90;;;;;;5078872;28;20402;-79
2022/09/27 10:03:25;;;;;;;1.80;0.57;;;18.20;99.90;;;;;;5056063;28;20414;-78
2022/09/27 10:05:51;;;;;;;0.45;0.32;;;18.60;99.90;;;;;;5071702;28;20044;-78
2022/09/27 10:08:20;;;;;;;3.90;0.38;;;18.50;99.90;;;;;;5073845;28;20037;-79
2022/09/27 10:10:46;;;;;;;0.93;0.32;;;18.20;99.90;;;;;;5064766;28;20039;-80
2022/09/27 10:13:18;;;;;;;0.77;0.45;;;17.90;99.90;;;;;;5065384;28;20043;-80
2022/09/27 10:16:03;;;;;;;2.83;0.75;;;17.70;99.90;;;;;;5060865;28;20092;-80
2022/09/27 10:18:29;;;;;;;1.75;0.40;;;17.20;99.90;;;;;;5063074;28;20059;-80
2022/09/27 10:21:03;;;;;;;1.35;0.80;;;17.10;99.90;;;;;;5074355;28;20121;-81
2022/09/27 10:23:29;;;;;;;1.13;0.28;;;16.90;99.90;;;;;;5080778;28;20691;-81
2022/09/27 10:26:01;;;;;;;0.20;0.20;;;16.30;99.90;;;;;;5079720;28;20386;-80
2022/09/27 10:28:33;;;;;;;2.85;0.40;;;15.70;99.90;;;;;;5064223;28;20035;-80
2022/09/27 10:31:08;;;;;;;0.80;0.43;;;14.90;99.90;;;;;;5067938;28;20040;-80
2022/09/27 10:33:38;;;;;;;1.17;0.20;;;14.30;99.90;;;;;;5071712;28;20485;-80
2022/09/27 10:36:20;;;;;;;1.30;0.38;;;13.90;99.90;;;;;;5069143;28;20070;-80
2022/09/27 10:38:52;;;;;;;1.60;0.38;;;13.60;99.90;;;;;;5069634;28;20044;-80
2022/09/27 10:41:23;;;;;;;1.10;0.47;;;13.40;99.90;;;;;;5069577;28;20125;-80
2022/09/27 10:43:48;;;;;;;0.43;0.20;;;13.30;99.90;;;;;;5070285;28;20055;-79
2022/09/27 10:46:33;;;;;;;0.35;0.20;;;13.40;99.90;;;;;;5033388;28;20033;-78
2022/09/27 10:49:19;;;;;;;0.30;0.30;;;13.90;99.90;;;;;;5063173;28;20037;-78
2022/09/27 10:51:48;;;;;;;0.30;0.13;;;14.80;99.90;;;;;;5068961;28;20071;-78
2022/09/27 10:54:23;;;;;;;1.23;0.30;;;15.60;99.90;;;;;;5061721;28;20287;-78
2022/09/27 10:57:41;;;;;;;0.00;0.00;;;16.40;99.90;;;;;;5075745;28;20044;-78
2022/09/27 11:00:27;;;;;;;;;;;17.40;99.90;;;;;;5064465;28;20053;-78
2022/09/27 11:03:00;;;;;;;0.00;0.00;;;18.00;99.90;;;;;;5046322;28;19925;-78
2022/09/27 11:05:26;;;;;;;2.97;0.55;;;18.20;99.90;;;;;;5055143;28;20491;-78
2022/09/27 11:08:02;;;;;;;0.13;0.13;;;18.40;99.90;;;;;;5103636;28;20044;-79
2022/09/27 11:10:35;;;;;;;4.40;1.13;;;18.60;99.90;;;;;;5105363;28;20068;-79
2022/09/27 11:13:13;;;;;;;0.35;0.30;;;18.80;99.90;;;;;;5058369;28;20321;-79
2022/09/27 11:15:58;;;;;;;5.20;0.52;;;18.60;99.90;;;;;;5088602;28;20039;-79
2022/09/27 11:18:49;;;;;;;0.52;0.50;;;17.90;99.90;;;;;;5082955;28;20073;-79
2022/09/27 11:21:25;;;;;;;2.95;0.50;;;17.00;99.90;;;;;;5075451;28;20060;-79
2022/09/27 11:24:24;;;;;;;1.35;0.20;;;16.40;99.90;;;;;;5075232;28;20050;-79
2022/09/27 11:27:14;;;;;;;0.32;0.32;;;16.00;99.90;;;;;;5062290;28;20053;-79
2022/09/27 11:29:39;;;;;;;3.42;0.82;;;15.70;99.90;;;;;;5043886;28;20123;-79
2022/09/27 11:32:17;;;;;;;0.52;0.40;;;15.50;99.90;;;;;;5075566;28;20079;-79
2022/09/27 11:34:55;;;;;;;1.48;0.50;;;15.30;99.90;;;;;;5061026;28;20115;-78
2022/09/27 11:37:39;;;;;;;0.20;0.20;;;15.20;99.90;;;;;;5072796;28;20032;-78
2022/09/27 11:40:32;;;;;;;0.40;0.10;;;15.00;99.90;;;;;;5067888;28;20037;-77
2022/09/27 11:43:20;;;;;;;0.32;0.30;;;14.90;99.90;;;;;;5073148;28;20140;-77
2022/09/27 11:46:00;;;;;;;1.65;0.35;;;14.90;99.90;;;;;;5069249;28;20119;-77
2022/09/27 11:48:54;;;;;;;1.27;0.60;;;14.80;99.90;;;;;;5054071;28;20048;-78
2022/09/27 11:51:26;;;;;;;0.43;0.10;;;14.70;99.90;;;;;;5069982;28;20036;-78
2022/09/27 11:53:55;;;;;;;0.20;0.17;;;14.60;99.90;;;;;;5081260;28;20076;-78
2022/09/27 11:56:39;;;;;;;1.00;0.40;;;14.50;99.90;;;;;;5065189;28;20131;-78
2022/09/27 11:59:36;;;;;;;1.35;0.47;;;14.30;99.90;;;;;;5073132;28;20044;-78
2022/09/27 12:02:29;;;;;;;1.15;0.47;;;14.10;99.90;;;;;;5055407;28;20032;-78
2022/09/27 12:05:00;;;;;;;1.75;0.50;;;14.00;99.90;;;;;;5056007;28;20045;-78
2022/09/27 12:07:41;;;;;;;1.63;0.55;;;14.00;99.90;;;;;;5072387;28;20036;-79
2022/09/27 12:10:13;;;;;;;0.40;0.30;;;14.00;99.90;;;;;;5070837;28;20116;-79
2022/09/27 12:12:43;;;;;;;1.23;0.40;;;14.30;99.90;;;;;;5071049;28;20366;-80
2022/09/27 12:15:20;;;;;;;2.17;0.93;;;14.70;99.90;;;;;;5073879;28;20520;-79
2022/09/27 12:17:49;;;;;;;0.20;0.20;;;15.10;99.90;;;;;;5052408;28;20071;-80
2022/09/27 12:20:14;;;;;;;0.85;0.35;;;15.40;99.90;;;;;;5072079;28;20382;-80
2022/09/27 12:22:53;;;;;;;2.05;0.63;;;15.70;99.90;;;;;;5068756;28;20037;-80
2022/09/27 12:25:19;;;;;;;1.63;0.50;;;16.30;99.90;;;;;;5072886;28;20082;-80
2022/09/27 12:28:35;;;;;;;0.52;0.20;;;16.50;99.90;;;;;;5072890;28;20713;-80
2022/09/27 12:31:25;;;;;;;5.75;0.73;;;16.60;99.90;;;;;;4975509;28;20117;-80
2022/09/27 12:34:23;;;;;;;0.20;0.20;;;16.60;99.90;;;;;;5050381;28;20037;-80
2022/09/27 12:37:18;;;;;;;0.63;0.40;;;17.00;99.90;;;;;;5037279;28;20076;-80
2022/09/27 12:39:56;;;;;;;0.80;0.28;;;17.50;99.90;;;;;;5054217;28;20098;-80
2022/09/27 12:42:27;;;;;;;1.80;0.40;;;17.70;99.90;;;;;;5070572;28;20113;-80
2022/09/27 12:44:52;;;;;;;2.78;0.32;;;17.60;99.90;;;;;;5089600;28;20492;-80
2022/09/27 12:47:30;;;;;;;0.47;0.30;;;16.90;99.90;;;;;;5051024;28;20044;-81
2022/09/27 12:50:29;;;;;;;1.60;0.38;;;16.10;99.90;;;;;;5073928;28;20047;-81
2022/09/27 12:53:03;;;;;;;0.38;0.20;;;15.00;99.90;;;;;;5073901;28;20090;-81
2022/09/27 12:55:38;;;;;;;1.55;0.30;;;14.30;99.90;;;;;;5056793;28;20048;-80
2022/09/27 12:58:28;;;;;;;0.10;0.10;;;13.80;99.90;;;;;;5073938;28;20123;-79
2022/09/27 13:01:01;;;;;;;0.40;0.20;;;13.50;99.90;;;;;;5073102;28;20078;-80
2022/09/27 13:03:50;;;;;;;0.65;0.40;;;13.50;99.90;;;;;;5073615;28;20111;-80
2022/09/27 13:06:24;;;;;;;1.67;0.30;;;13.80;99.90;;;;;;5061887;28;20112;-80
2022/09/27 13:09:16;;;;;;;1.48;0.50;;;14.40;99.90;;;;;;5095467;28;20040;-80
2022/09/27 13:12:09;;;;;;;0.32;0.32;;;14.80;99.90;;;;;;5078948;28;20036;-80
2022/09/27 13:15:03;;;;;;;0.82;0.47;;;14.80;99.90;;;;;;5086422;28;20040;-79
2022/09/27 13:17:39;;;;;;;0.25;0.15;;;14.50;99.90;;;;;;5051031;28;20044;-79
2022/09/27 13:20:23;;;;;;;;;;;14.20;99.90;;;;;;5074252;28;20045;-79
2022/09/27 13:22:50;;;;;;;0.30;0.15;;;13.90;99.90;;;;;;5052949;28;19916;-79
2022/09/27 13:25:53;;;;;;;0.52;0.35;;;13.70;99.90;;;;;;5056289;28;20075;-80
2022/09/27 13:28:30;;;;;;;4.38;0.40;;;13.50;99.90;;;;;;5057424;28;20104;-79
2022/09/27 13:31:02;;;;;;;0.17;0.10;;;13.30;99.90;;;;;;5053667;28;20459;-81
2022/09/27 13:33:32;;;;;;;0.30;0.30;;;13.10;99.90;;;;;;5065716;28;20368;-81
2022/09/27 13:36:20;;;;;;;1.95;0.57;;;12.90;99.90;;;;;;5069596;28;20032;-81
2022/09/27 13:39:04;;;;;;;0.95;0.38;;;12.50;99.90;;;;;;5081732;28;20102;-81
2022/09/27 13:41:52;;;;;;;1.30;0.70;;;12.30;99.90;;;;;;5094415;22;20493;-80
2022/09/27 13:45:09;;;;;;;2.58;1.50;;;12.10;99.90;;;;;;5048678;28;20036;-81
2022/09/27 13:47:44;;;;;;;1.15;0.82;;;12.10;99.90;;;;;;4946264;28;20168;-79
2022/09/27 13:50:15;;;;;;;0.50;0.40;;;12.20;99.90;;;;;;4947397;28;20159;-79
2022/09/27 13:52:54;;;;;;;1.83;1.20;;;12.30;99.90;;;;;;5009111;28;20055;-79
2022/09/27 13:55:49;;;;;;;0.40;0.40;;;12.40;99.90;;;;;;5032342;28;20048;-79
2022/09/27 13:58:29;;;;;;;4.82;1.50;;;12.60;99.90;;;;;;5052042;28;20044;-79
2022/09/27 14:00:58;;;;;;;1.10;0.70;;;12.70;99.90;;;;;;5045075;28;20047;-79
2022/09/27 14:03:36;;;;;;;0.15;0.15;;;12.80;99.90;;;;;;5053442;28;20497;-80
2022/09/27 14:06:07;;;;;;;0.22;0.22;;;12.80;99.90;;;;;;5045350;28;20502;-81
2022/09/27 14:08:32;;;;;;;0.45;0.38;;;12.80;99.90;;;;;;5051882;28;20049;-80
2022/09/27 14:11:01;;;;;;;1.55;0.22;;;12.80;99.90;;;;;;5036372;28;20040;-81
2022/09/27 14:13:30;;;;;;;0.90;0.40;;;12.90;99.90;;;;;;5026059;28;20033;-80
2022/09/27 14:16:01;;;;;;;0.40;0.17;;;13.00;99.90;;;;;;5033534;28;20075;-80
2022/09/27 14:18:29;;;;;;;0.47;0.32;;;13.00;99.90;;;;;;5057664;28;20047;-80
2022/09/27 14:21:18;;;;;;;0.60;0.20;;;13.10;99.90;;;;;;5029290;28;20041;-80
2022/09/27 14:23:44;;;;;;;0.25;0.20;;;13.00;99.90;;;;;;5050127;28;20051;-80
2022/09/27 14:26:26;;;;;;;0.95;0.40;;;13.00;99.90;;;;;;5018800;28;20036;-80
2022/09/27 14:28:52;;;;;;;0.40;0.28;;;13.00;99.90;;;;;;5036357;28;20091;-80
2022/09/27 14:31:22;;;;;;;0.47;0.32;;;13.00;99.90;;;;;;5051591;28;20471;-80
2022/09/27 14:33:49;;;;;;;0.82;0.22;;;13.00;99.90;;;;;;5022736;28;20383;-80
2022/09/27 14:39:20;;;;;;;0.30;0.20;;;13.00;99.90;;;;;;5050768;28;20544;-79
2022/09/27 14:41:46;;;;;;;0.30;0.30;;;13.00;99.90;;;;;;5050481;28;20383;-79
2022/09/27 14:44:16;;;;;;;1.30;0.68;;;13.00;99.90;;;;;;5051561;28;20053;-79
2022/09/27 14:46:41;;;;;;;2.13;0.50;;;13.00;99.90;;;;;;5052772;28;20044;-79
2022/09/27 14:49:22;;;;;;;0.68;0.50;;;13.00;99.90;;;;;;5038265;28;20041;-79
2022/09/27 14:51:53;;;;;;;0.30;0.30;;;13.00;99.90;;;;;;5044813;28;20083;-79
2022/09/27 14:54:30;;;;;;;0.90;0.38;;;13.00;99.90;;;;;;5058096;28;20401;-79
2022/09/27 14:56:58;;;;;;;1.30;0.50;;;13.00;99.90;;;;;;5057937;28;20082;-79
2022/09/27 14:59:33;;;;;;;1.30;0.77;;;12.90;99.90;;;;;;5056468;28;20166;-79
2022/09/27 15:02:05;;;;;;;2.28;0.50;;;12.90;99.90;;;;;;5044347;28;20051;-79
2022/09/27 15:04:31;;;;;;;1.17;0.88;;;12.90;99.90;;;;;;5047834;28;20179;-79
2022/09/27 15:06:57;;;;;;;1.10;0.70;;;12.90;99.90;;;;;;5057522;28;20093;-79
2022/09/27 15:09:24;;;;;;;0.45;0.40;;;12.90;99.90;;;;;;5047771;28;20040;-79
2022/09/27 15:12:04;;;;;;;1.27;0.63;;;12.90;99.90;;;;;;5055152;28;20394;-79
2022/09/27 15:14:32;;;;;;;0.22;0.22;;;12.90;99.90;;;;;;5041663;28;20036;-79
2022/09/27 15:17:04;;;;;;;0.22;0.22;;;12.90;99.90;;;;;;5049263;28;20037;-79
2022/09/27 15:19:32;;;;;;;0.98;0.43;;;12.90;99.90;;;;;;5049163;28;20123;-79
2022/09/27 15:22:21;;;;;;;0.93;0.43;;;12.90;99.90;;;;;;5042785;28;20119;-79
2022/09/27 15:24:47;;;;;;;2.53;0.70;;;12.80;99.90;;;;;;5006118;28;20036;-79
2022/09/27 15:27:20;;;;;;;0.77;0.40;;;12.90;99.90;;;;;;5055660;28;20043;-79
2022/09/27 15:29:52;;;;;;;4.38;0.57;;;12.90;99.90;;;;;;5057097;28;20040;-79
2022/09/27 15:32:24;;;;;;;1.92;0.55;;;12.90;99.90;;;;;;5051082;28;20037;-79
2022/09/27 15:34:51;;;;;;;0.38;0.35;;;12.80;99.90;;;;;;5054615;28;20083;-79
2022/09/27 15:37:25;;;;;;;0.63;0.28;;;12.80;99.90;;;;;;5040436;28;20041;-79
2022/09/27 15:39:51;;;;;;;3.17;0.63;;;12.70;99.90;;;;;;5057333;28;20094;-79
2022/09/27 15:42:18;;;;;;;3.67;0.68;;;12.60;99.90;;;;;;5050522;28;20502;-79
2022/09/27 15:44:52;;;;;;;2.28;1.10;;;12.60;99.90;;;;;;5047681;28;20045;-80
2022/09/27 15:47:33;;;;;;;3.20;0.85;;;12.50;99.90;;;;;;5046629;28;20148;-80
2022/09/27 15:50:25;;;;;;;2.63;0.95;;;12.40;99.90;;;;;;5045133;28;20029;-80
2022/09/27 15:52:54;;;;;;;3.80;1.10;;;12.40;99.90;;;;;;5040452;28;20047;-80
2022/09/27 15:55:25;;;;;;;1.60;0.82;;;12.40;99.90;;;;;;5036579;28;20064;-80
2022/09/27 15:58:00;;;;;;;0.80;0.50;;;12.20;99.90;;;;;;5053627;28;20102;-80
2022/09/27 16:00:28;;;;;;;0.30;0.30;;;12.00;99.90;;;;;;5036710;28;20082;-79
2022/09/27 16:02:54;;;;;;;0.38;0.35;;;11.90;99.90;;;;;;5040571;28;20406;-79
2022/09/27 16:05:22;;;;;;;1.23;0.68;;;11.70;99.90;;;;;;5019174;28;20033;-79
2022/09/27 16:07:49;;;;;;;3.30;1.23;;;11.70;99.90;;;;;;5035778;28;20045;-79
2022/09/27 16:10:29;;;;;;;3.67;0.80;;;11.40;99.90;;;;;;5037662;28;20071;-78
2022/09/27 16:12:55;;;;;;;1.95;0.50;;;11.20;99.90;;;;;;5053344;28;20059;-78
2022/09/27 16:15:20;;;;;;;0.60;0.50;;;11.00;99.90;;;;;;5054954;28;20467;-79
2022/09/27 16:17:46;;;;;;;5.13;2.95;;;10.90;99.90;;;;;;5052978;28;20047;-80
2022/09/27 16:20:25;;;;;;;4.32;1.58;;;10.80;99.90;;;;;;5050558;28;20489;-80
2022/09/27 16:22:52;;;;;;;1.90;0.80;;;10.70;99.90;;;;;;5048895;28;20133;-79
2022/09/27 16:25:19;;;;;;;0.45;0.40;;;10.60;99.90;;;;;;5055407;28;20044;-80
2022/09/27 16:27:45;;;;;;;1.77;0.45;;;10.50;99.90;;;;;;5053030;28;20044;-80
2022/09/27 16:30:11;;;;;;;1.08;0.70;;;10.40;99.90;;;;;;5057967;28;20045;-79
2022/09/27 16:32:41;;;;;;;0.60;0.50;;;10.40;99.90;;;;;;5035898;28;20128;-80
2022/09/27 16:35:08;;;;;;;0.80;0.80;;;10.30;99.90;;;;;;5057823;28;20040;-79
2022/09/27 16:37:34;;;;;;;2.58;0.90;;;10.30;99.90;;;;;;5052786;28;20047;-79
2022/09/27 16:40:00;;;;;;;0.98;0.90;;;10.20;99.90;;;;;;5057669;28;20041;-79
2022/09/27 16:42:26;;;;;;;3.55;1.38;;;10.20;99.90;;;;;;5045222;28;20048;-79
2022/09/27 16:44:52;;;;;;;1.85;0.85;;;10.20;99.90;;;;;;5023068;28;20360;-79
2022/09/27 16:47:19;;;;;;;0.50;0.50;;;10.20;99.90;;;;;;5020674;28;20058;-79
2022/09/27 16:52:33;;;;;;;4.35;0.95;;;10.00;99.90;;;;;;5037322;28;20064;-79
2022/09/27 16:54:59;;;;;;;0.20;0.20;;;10.00;99.90;;;;;;5043785;28;20095;-79
2022/09/27 16:57:29;;;;;;;1.15;0.70;;;10.00;99.90;;;;;;5041568;28;20048;-79
2022/09/27 16:59:56;;;;;;;0.52;0.40;;;9.90;99.90;;;;;;5012570;28;20036;-79
2022/09/27 17:02:23;;;;;;;0.40;0.40;;;9.90;99.90;;;;;;5047990;28;20044;-79
2022/09/27 17:04:49;;;;;;;0.43;0.40;;;9.80;99.90;;;;;;5052268;28;20050;-79
2022/09/27 17:07:15;;;;;;;0.85;0.30;;;9.80;99.90;;;;;;5041682;28;20095;-79
2022/09/27 17:09:41;;;;;;;1.50;1.05;;;9.80;99.90;;;;;;5049063;28;20040;-79
2022/09/27 17:12:06;;;;;;;3.90;1.17;;;9.70;99.90;;;;;;5047262;28;20029;-79
2022/09/27 17:14:32;;;;;;;2.28;1.13;;;9.70;99.90;;;;;;5049537;28;20241;-79
2022/09/27 17:16:58;;;;;;;4.45;1.67;;;9.60;99.90;;;;;;5034343;28;20110;-79
2022/09/27 17:19:24;;;;;;;3.65;0.85;;;9.50;99.90;;;;;;5034184;28;20483;-79
2022/09/27 17:21:49;;;;;;;1.75;0.82;;;9.60;99.90;;;;;;5046216;28;20067;-79
2022/09/27 17:24:16;;;;;;;2.63;0.75;;;9.50;99.90;;;;;;5036433;28;20127;-79
2022/09/27 17:26:42;;;;;;;0.98;0.50;;;9.50;99.90;;;;;;5036234;28;20044;-79
2022/09/27 17:29:10;;;;;;;7.68;0.75;;;9.50;99.90;;;;;;5041680;28;20514;-79
2022/09/27 17:31:38;;;;;;;1.45;0.73;;;9.40;99.90;;;;;;5040016;28;20036;-79
2022/09/27 17:34:04;;;;;;;1.48;0.63;;;9.30;99.90;;;;;;5053035;28;20486;-79
2022/09/27 17:36:33;;;;;;;1.98;0.90;;;9.30;99.90;;;;;;5032724;28;20135;-79
2022/09/27 17:39:00;;;;;;;1.55;0.80;;;9.30;99.90;;;;;;5047607;28;20070;-79
2022/09/27 17:41:27;;;;;;;10.48;4.82;;;9.30;99.90;;;;;;5031126;28;20393;-80
2022/09/27 17:43:56;;;;;;;7.57;2.78;;;9.20;99.90;;;;;;5033614;28;20084;-79
2022/09/27 17:46:34;;;;;;;8.18;3.60;;;9.20;99.90;;;;;;5030333;28;20457;-80
2022/09/27 17:51:50;;;;;;;3.85;1.73;;;9.10;99.90;;;;;;5052209;28;20490;-80
2022/09/27 17:54:18;;;;;;;5.47;2.05;;;9.10;99.90;;;;;;5035777;28;20060;-80
2022/09/27 17:56:45;;;;;;;1.85;0.98;;;9.00;99.90;;;;;;5020512;28;20037;-80
2022/09/27 17:59:12;;;;;;;1.90;0.80;;;9.00;99.90;;;;;;5036225;28;20555;-80
2022/09/27 18:01:38;;;;;;;2.45;0.90;;;9.00;99.90;;;;;;5049146;28;20045;-79
2022/09/27 18:04:09;;;;;;;1.23;0.85;;;8.90;99.90;;;;;;5010042;28;20067;-79
2022/09/27 18:06:39;;;;;;;2.08;1.17;;;8.90;99.90;;;;;;5046006;28;20127;-79
2022/09/27 18:09:09;;;;;;;1.40;0.80;;;9.00;99.90;;;;;;5054411;28;20169;-79
2022/09/27 18:11:36;;;;;;;1.15;0.50;;;8.90;99.90;;;;;;5051909;28;20642;-79
2022/09/27 18:14:03;;;;;;;1.27;0.88;;;8.90;99.90;;;;;;5054898;28;20046;-79
2022/09/27 18:16:35;;;;;;;0.50;0.50;;;8.90;99.90;;;;;;5050609;28;20080;-79
2022/09/27 18:19:03;;;;;;;0.75;0.57;;;8.90;99.90;;;;;;5049073;28;20044;-79
2022/09/27 18:21:30;;;;;;;0.65;0.40;;;8.90;99.90;;;;;;5055528;28;20454;-79
2022/09/27 18:23:57;;;;;;;1.70;0.95;;;8.90;99.90;;;;;;5051477;28;20060;-79
2022/09/27 18:26:25;;;;;;;0.40;0.40;;;9.20;99.90;;;;;;5054639;28;20517;-79
2022/09/27 18:28:53;;;;;;;0.43;0.38;;;8.90;99.90;;;;;;5021354;28;20479;-79
2022/09/27 18:31:20;;;;;;;0.80;0.40;;;8.90;99.90;;;;;;5051985;28;20093;-79
2022/09/27 18:33:47;;;;;;;1.67;0.85;;;8.90;99.90;;;;;;5036293;28;20557;-79
2022/09/27 18:36:20;;;;;;;1.50;0.68;;;8.90;99.90;;;;;;5031766;28;20076;-79
2022/09/27 18:38:52;;;;;;;0.65;0.57;;;8.90;99.90;;;;;;5039494;28;20045;-79
2022/09/27 18:41:19;;;;;;;0.73;0.40;;;9.10;99.90;;;;;;5033483;28;20128;-79
2022/09/27 18:43:45;;;;;;;1.33;0.52;;;9.00;99.90;;;;;;5028489;28;20128;-79
2022/09/27 18:46:20;;;;;;;1.33;0.70;;;8.90;99.90;;;;;;5030180;28;20041;-79
2022/09/27 18:48:46;;;;;;;1.92;0.90;;;8.90;99.90;;;;;;5040657;28;20039;-79
2022/09/27 18:51:17;;;;;;;1.17;0.70;;;8.90;99.90;;;;;;5048222;28;20029;-79